Pinebluff, Mississippi
Current Conditions -  °F | °C
As of 9:55 AM on Sunday 23 Nov 2014 (Local Time) from KSTF Reporting Station
Overcast Overcast  
Wind Chill: 59°   Ceiling: 400
Heat Index: 59°   Visibility: NA
Dew Point: 59°   Wind: 10mph
Humidity: 100%   Direction: 130°SE
Pressure: 29.69"   Gusts: NA
Location:  33.6711°N, 89.1329°W
Report Text: KSTF 231555Z AUTO 13009KT OVC004 15/15 A2969 RMK AO2 P0003 LTG DSNT SE PWINO
Loading
Personal Weather Stations






























Interactive Weather Map New forecast layout! Learn more

10-Day Weather Forecast

Advertisements
Track Severe Weather on mobile